sensor_id;sensor_type;location;lat;lon;timestamp;temperature;humidity
4637;DHT22;2331;48.806;9.140;2024-02-26T00:00:02;11.10;1.00
4637;DHT22;2331;48.806;9.140;2024-02-26T00:02:30;11.10;1.00
4637;DHT22;2331;48.806;9.140;2024-02-26T00:04:58;11.10;1.00
4637;DHT22;2331;48.806;9.140;2024-02-26T00:07:26;11.20;1.00
4637;DHT22;2331;48.806;9.140;2024-02-26T00:09:53;11.00;1.00
4637;DHT22;2331;48.806;9.140;2024-02-26T00:12:20;11.10;1.00
4637;DHT22;2331;48.806;9.140;2024-02-26T00:14:46;11.10;1.00
4637;DHT22;2331;48.806;9.140;2024-02-26T00:17:15;11.10;1.00
4637;DHT22;2331;48.806;9.140;2024-02-26T00:19:42;11.10;1.00
4637;DHT22;2331;48.806;9.140;2024-02-26T00:22:09;11.10;1.00
4637;DHT22;2331;48.806;9.140;2024-02-26T00:24:37;11.10;1.00
4637;DHT22;2331;48.806;9.140;2024-02-26T00:27:03;11.00;1.00
4637;DHT22;2331;48.806;9.140;2024-02-26T00:29:30;11.10;1.00
4637;DHT22;2331;48.806;9.140;2024-02-26T00:31:57;11.10;1.00
4637;DHT22;2331;48.806;9.140;2024-02-26T00:34:24;11.10;1.00
4637;DHT22;2331;48.806;9.140;2024-02-26T00:36:51;11.10;1.00
4637;DHT22;2331;48.806;9.140;2024-02-26T00:39:17;11.10;1.00
4637;DHT22;2331;48.806;9.140;2024-02-26T00:41:45;11.10;1.00
4637;DHT22;2331;48.806;9.140;2024-02-26T00:44:12;11.10;1.00
4637;DHT22;2331;48.806;9.140;2024-02-26T00:46:39;11.10;1.00
4637;DHT22;2331;48.806;9.140;2024-02-26T00:49:05;11.00;1.00
4637;DHT22;2331;48.806;9.140;2024-02-26T00:51:32;11.00;1.00
4637;DHT22;2331;48.806;9.140;2024-02-26T00:53:59;11.00;1.00
4637;DHT22;2331;48.806;9.140;2024-02-26T00:56:25;11.00;1.00
4637;DHT22;2331;48.806;9.140;2024-02-26T00:58:53;11.00;1.00
4637;DHT22;2331;48.806;9.140;2024-02-26T01:01:20;11.00;1.00
4637;DHT22;2331;48.806;9.140;2024-02-26T01:03:48;11.00;1.00
4637;DHT22;2331;48.806;9.140;2024-02-26T01:06:14;11.00;1.00
4637;DHT22;2331;48.806;9.140;2024-02-26T01:08:41;10.90;1.00
4637;DHT22;2331;48.806;9.140;2024-02-26T01:11:08;10.90;1.00
4637;DHT22;2331;48.806;9.140;2024-02-26T01:13:34;10.90;1.00
4637;DHT22;2331;48.806;9.140;2024-02-26T01:16:03;11.00;1.00
4637;DHT22;2331;48.806;9.140;2024-02-26T01:18:30;11.00;1.00
4637;DHT22;2331;48.806;9.140;2024-02-26T01:20:56;10.90;1.00
4637;DHT22;2331;48.806;9.140;2024-02-26T01:23:23;11.00;1.00
4637;DHT22;2331;48.806;9.140;2024-02-26T01:25:50;11.00;1.00
4637;DHT22;2331;48.806;9.140;2024-02-26T01:28:17;11.00;1.00
4637;DHT22;2331;48.806;9.140;2024-02-26T01:30:43;11.00;1.00
4637;DHT22;2331;48.806;9.140;2024-02-26T01:33:12;11.00;1.00
4637;DHT22;2331;48.806;9.140;2024-02-26T01:35:38;11.00;1.00
4637;DHT22;2331;48.806;9.140;2024-02-26T01:38:05;11.00;1.00
4637;DHT22;2331;48.806;9.140;2024-02-26T01:40:32;10.90;1.00
4637;DHT22;2331;48.806;9.140;2024-02-26T01:42:59;10.90;1.00
4637;DHT22;2331;48.806;9.140;2024-02-26T01:45:26;10.90;1.00
4637;DHT22;2331;48.806;9.140;2024-02-26T01:47:54;10.80;1.00
4637;DHT22;2331;48.806;9.140;2024-02-26T01:50:22;10.80;1.00
4637;DHT22;2331;48.806;9.140;2024-02-26T01:52:51;10.80;1.00
4637;DHT22;2331;48.806;9.140;2024-02-26T01:55:18;10.80;1.00
4637;DHT22;2331;48.806;9.140;2024-02-26T01:57:48;10.90;1.00
4637;DHT22;2331;48.806;9.140;2024-02-26T02:00:16;10.90;1.00
4637;DHT22;2331;48.806;9.140;2024-02-26T02:02:43;10.90;1.00
4637;DHT22;2331;48.806;9.140;2024-02-26T02:05:12;10.70;1.00
4637;DHT22;2331;48.806;9.140;2024-02-26T02:07:41;10.80;1.00
4637;DHT22;2331;48.806;9.140;2024-02-26T02:10:08;10.80;1.00
4637;DHT22;2331;48.806;9.140;2024-02-26T02:12:36;10.90;1.00
4637;DHT22;2331;48.806;9.140;2024-02-26T02:15:06;10.90;1.00
4637;DHT22;2331;48.806;9.140;2024-02-26T02:17:32;10.90;1.00
4637;DHT22;2331;48.806;9.140;2024-02-26T02:19:59;10.90;1.00
4637;DHT22;2331;48.806;9.140;2024-02-26T02:22:27;10.80;1.00
4637;DHT22;2331;48.806;9.140;2024-02-26T02:24:54;10.80;1.00
4637;DHT22;2331;48.806;9.140;2024-02-26T02:27:21;10.80;1.00
4637;DHT22;2331;48.806;9.140;2024-02-26T02:29:48;10.80;1.00
4637;DHT22;2331;48.806;9.140;2024-02-26T02:32:16;10.70;1.00
4637;DHT22;2331;48.806;9.140;2024-02-26T02:34:44;10.70;1.00
4637;DHT22;2331;48.806;9.140;2024-02-26T02:37:11;10.80;1.00
4637;DHT22;2331;48.806;9.140;2024-02-26T02:39:39;10.80;1.00
4637;DHT22;2331;48.806;9.140;2024-02-26T02:42:07;10.70;1.00
4637;DHT22;2331;48.806;9.140;2024-02-26T02:44:34;10.70;1.00
4637;DHT22;2331;48.806;9.140;2024-02-26T02:47:01;10.70;1.00
4637;DHT22;2331;48.806;9.140;2024-02-26T02:49:27;10.80;1.00
4637;DHT22;2331;48.806;9.140;2024-02-26T02:51:54;10.80;1.00
4637;DHT22;2331;48.806;9.140;2024-02-26T02:54:23;10.70;1.00
4637;DHT22;2331;48.806;9.140;2024-02-26T02:56:50;10.70;1.00
4637;DHT22;2331;48.806;9.140;2024-02-26T02:59:17;10.70;1.00
4637;DHT22;2331;48.806;9.140;2024-02-26T03:01:44;10.70;1.00
4637;DHT22;2331;48.806;9.140;2024-02-26T03:04:11;10.70;1.00
4637;DHT22;2331;48.806;9.140;2024-02-26T03:06:37;10.70;1.00
4637;DHT22;2331;48.806;9.140;2024-02-26T03:09:04;10.80;1.00
4637;DHT22;2331;48.806;9.140;2024-02-26T03:11:30;10.70;1.00
4637;DHT22;2331;48.806;9.140;2024-02-26T03:13:58;10.70;1.00
4637;DHT22;2331;48.806;9.140;2024-02-26T03:16:25;10.70;1.00
4637;DHT22;2331;48.806;9.140;2024-02-26T03:18:52;10.70;1.00
4637;DHT22;2331;48.806;9.140;2024-02-26T03:24:40;10.70;1.00
4637;DHT22;2331;48.806;9.140;2024-02-26T03:27:07;10.80;1.00
4637;DHT22;2331;48.806;9.140;2024-02-26T03:29:36;10.80;1.00
4637;DHT22;2331;48.806;9.140;2024-02-26T03:32:04;10.70;1.00
4637;DHT22;2331;48.806;9.140;2024-02-26T03:34:31;10.70;1.00
4637;DHT22;2331;48.806;9.140;2024-02-26T03:36:59;10.70;1.00
4637;DHT22;2331;48.806;9.140;2024-02-26T03:39:27;10.60;1.00
4637;DHT22;2331;48.806;9.140;2024-02-26T03:41:53;10.60;1.00
4637;DHT22;2331;48.806;9.140;2024-02-26T03:44:21;10.60;1.00
4637;DHT22;2331;48.806;9.140;2024-02-26T03:46:49;10.60;1.00
4637;DHT22;2331;48.806;9.140;2024-02-26T03:49:16;10.70;1.00
4637;DHT22;2331;48.806;9.140;2024-02-26T03:51:43;10.70;1.00
4637;DHT22;2331;48.806;9.140;2024-02-26T03:54:10;10.60;1.00
4637;DHT22;2331;48.806;9.140;2024-02-26T03:56:37;10.60;1.00
4637;DHT22;2331;48.806;9.140;2024-02-26T03:59:04;10.70;1.00
4637;DHT22;2331;48.806;9.140;2024-02-26T04:01:31;10.60;1.00
4637;DHT22;2331;48.806;9.140;2024-02-26T04:03:59;10.60;1.00
4637;DHT22;2331;48.806;9.140;2024-02-26T04:06:26;10.70;1.00
4637;DHT22;2331;48.806;9.140;2024-02-26T04:08:53;10.60;1.00
4637;DHT22;2331;48.806;9.140;2024-02-26T04:11:19;10.60;1.00
4637;DHT22;2331;48.806;9.140;2024-02-26T04:13:47;10.60;1.00
4637;DHT22;2331;48.806;9.140;2024-02-26T04:16:15;10.50;1.00
4637;DHT22;2331;48.806;9.140;2024-02-26T04:18:42;10.50;1.00
4637;DHT22;2331;48.806;9.140;2024-02-26T04:21:10;10.50;1.00
4637;DHT22;2331;48.806;9.140;2024-02-26T04:23:36;10.60;1.00
4637;DHT22;2331;48.806;9.140;2024-02-26T04:26:04;10.50;1.00
4637;DHT22;2331;48.806;9.140;2024-02-26T04:28:31;10.50;1.00
4637;DHT22;2331;48.806;9.140;2024-02-26T04:30:57;10.50;1.00
4637;DHT22;2331;48.806;9.140;2024-02-26T04:33:24;10.50;1.00
4637;DHT22;2331;48.806;9.140;2024-02-26T04:35:51;10.40;1.00
4637;DHT22;2331;48.806;9.140;2024-02-26T04:38:19;10.40;1.00
4637;DHT22;2331;48.806;9.140;2024-02-26T04:40:45;10.40;1.00
4637;DHT22;2331;48.806;9.140;2024-02-26T04:43:12;10.40;1.00
4637;DHT22;2331;48.806;9.140;2024-02-26T04:45:39;10.50;1.00
4637;DHT22;2331;48.806;9.140;2024-02-26T04:48:07;10.50;1.00
4637;DHT22;2331;48.806;9.140;2024-02-26T04:50:33;10.50;1.00
4637;DHT22;2331;48.806;9.140;2024-02-26T04:52:59;10.60;1.00
4637;DHT22;2331;48.806;9.140;2024-02-26T04:55:27;10.60;1.00
4637;DHT22;2331;48.806;9.140;2024-02-26T04:57:54;10.60;1.00
4637;DHT22;2331;48.806;9.140;2024-02-26T05:00:21;10.60;1.00
4637;DHT22;2331;48.806;9.140;2024-02-26T05:02:47;10.60;1.00
4637;DHT22;2331;48.806;9.140;2024-02-26T05:05:14;10.60;1.00
4637;DHT22;2331;48.806;9.140;2024-02-26T05:07:41;10.60;1.00
4637;DHT22;2331;48.806;9.140;2024-02-26T05:10:09;10.60;1.00
4637;DHT22;2331;48.806;9.140;2024-02-26T05:12:37;10.60;1.00
4637;DHT22;2331;48.806;9.140;2024-02-26T05:15:05;10.60;1.00
4637;DHT22;2331;48.806;9.140;2024-02-26T05:17:31;10.60;1.00
4637;DHT22;2331;48.806;9.140;2024-02-26T05:19:59;10.70;1.00
4637;DHT22;2331;48.806;9.140;2024-02-26T05:22:26;10.60;1.00
4637;DHT22;2331;48.806;9.140;2024-02-26T05:24:52;10.60;1.00
4637;DHT22;2331;48.806;9.140;2024-02-26T05:27:19;10.60;1.00
4637;DHT22;2331;48.806;9.140;2024-02-26T05:29:47;10.60;1.00
4637;DHT22;2331;48.806;9.140;2024-02-26T05:32:14;10.60;1.00
4637;DHT22;2331;48.806;9.140;2024-02-26T05:34:40;10.50;1.00
4637;DHT22;2331;48.806;9.140;2024-02-26T05:37:07;10.50;1.00
4637;DHT22;2331;48.806;9.140;2024-02-26T05:39:34;10.50;1.00
4637;DHT22;2331;48.806;9.140;2024-02-26T05:42:00;10.50;1.00
4637;DHT22;2331;48.806;9.140;2024-02-26T05:44:27;10.50;1.00
4637;DHT22;2331;48.806;9.140;2024-02-26T05:46:56;10.50;1.00
4637;DHT22;2331;48.806;9.140;2024-02-26T05:49:23;10.40;1.00
4637;DHT22;2331;48.806;9.140;2024-02-26T05:51:50;10.30;1.00
4637;DHT22;2331;48.806;9.140;2024-02-26T05:54:17;10.30;1.00
4637;DHT22;2331;48.806;9.140;2024-02-26T05:56:44;10.30;1.00
4637;DHT22;2331;48.806;9.140;2024-02-26T05:59:11;10.30;1.00
4637;DHT22;2331;48.806;9.140;2024-02-26T06:01:37;10.30;1.00
4637;DHT22;2331;48.806;9.140;2024-02-26T06:04:06;10.30;1.00
4637;DHT22;2331;48.806;9.140;2024-02-26T06:06:32;10.30;1.00
4637;DHT22;2331;48.806;9.140;2024-02-26T06:08:59;10.20;1.00
4637;DHT22;2331;48.806;9.140;2024-02-26T06:11:26;10.30;1.00
4637;DHT22;2331;48.806;9.140;2024-02-26T06:13:53;10.40;1.00
4637;DHT22;2331;48.806;9.140;2024-02-26T06:16:20;10.40;1.00
4637;DHT22;2331;48.806;9.140;2024-02-26T06:18:47;10.40;1.00
4637;DHT22;2331;48.806;9.140;2024-02-26T06:21:15;10.40;1.00
4637;DHT22;2331;48.806;9.140;2024-02-26T06:23:42;10.40;1.00
4637;DHT22;2331;48.806;9.140;2024-02-26T06:26:09;10.40;1.00
4637;DHT22;2331;48.806;9.140;2024-02-26T06:28:36;10.30;1.00
4637;DHT22;2331;48.806;9.140;2024-02-26T06:31:06;10.40;1.00
4637;DHT22;2331;48.806;9.140;2024-02-26T06:33:33;10.40;1.00
4637;DHT22;2331;48.806;9.140;2024-02-26T06:35:59;10.30;1.00
4637;DHT22;2331;48.806;9.140;2024-02-26T06:38:28;10.40;1.00
4637;DHT22;2331;48.806;9.140;2024-02-26T06:40:55;10.40;1.00
4637;DHT22;2331;48.806;9.140;2024-02-26T06:43:22;10.40;1.00
4637;DHT22;2331;48.806;9.140;2024-02-26T06:45:49;10.30;1.00
4637;DHT22;2331;48.806;9.140;2024-02-26T06:48:17;10.40;1.00
4637;DHT22;2331;48.806;9.140;2024-02-26T06:50:43;10.40;1.00
4637;DHT22;2331;48.806;9.140;2024-02-26T06:53:10;10.40;1.00
4637;DHT22;2331;48.806;9.140;2024-02-26T06:55:39;10.40;1.00
4637;DHT22;2331;48.806;9.140;2024-02-26T06:58:06;10.40;1.00
4637;DHT22;2331;48.806;9.140;2024-02-26T07:00:32;10.40;1.00
4637;DHT22;2331;48.806;9.140;2024-02-26T07:02:59;10.30;1.00
4637;DHT22;2331;48.806;9.140;2024-02-26T07:05:26;10.30;1.00
4637;DHT22;2331;48.806;9.140;2024-02-26T07:07:53;10.30;1.00
4637;DHT22;2331;48.806;9.140;2024-02-26T07:10:20;10.30;1.00
4637;DHT22;2331;48.806;9.140;2024-02-26T07:12:49;10.40;1.00
4637;DHT22;2331;48.806;9.140;2024-02-26T07:15:16;10.30;1.00
4637;DHT22;2331;48.806;9.140;2024-02-26T07:17:44;10.30;1.00
4637;DHT22;2331;48.806;9.140;2024-02-26T07:20:12;10.30;1.00
4637;DHT22;2331;48.806;9.140;2024-02-26T07:22:40;10.30;1.00
4637;DHT22;2331;48.806;9.140;2024-02-26T07:25:08;10.20;1.00
4637;DHT22;2331;48.806;9.140;2024-02-26T07:27:39;10.30;1.00
4637;DHT22;2331;48.806;9.140;2024-02-26T07:30:09;10.30;1.00
4637;DHT22;2331;48.806;9.140;2024-02-26T07:32:36;10.20;1.00
4637;DHT22;2331;48.806;9.140;2024-02-26T07:35:03;10.30;1.00
4637;DHT22;2331;48.806;9.140;2024-02-26T07:37:31;10.30;1.00
4637;DHT22;2331;48.806;9.140;2024-02-26T07:39:57;10.30;1.00
4637;DHT22;2331;48.806;9.140;2024-02-26T07:42:24;10.40;1.00
4637;DHT22;2331;48.806;9.140;2024-02-26T07:44:51;10.40;1.00
4637;DHT22;2331;48.806;9.140;2024-02-26T07:47:19;10.40;1.00
4637;DHT22;2331;48.806;9.140;2024-02-26T07:49:46;10.30;1.00
4637;DHT22;2331;48.806;9.140;2024-02-26T07:52:13;10.40;1.00
4637;DHT22;2331;48.806;9.140;2024-02-26T07:54:40;10.40;1.00
4637;DHT22;2331;48.806;9.140;2024-02-26T07:57:07;10.50;1.00
4637;DHT22;2331;48.806;9.140;2024-02-26T07:59:34;10.50;1.00
4637;DHT22;2331;48.806;9.140;2024-02-26T08:02:01;10.60;1.00
4637;DHT22;2331;48.806;9.140;2024-02-26T08:04:30;10.60;1.00
4637;DHT22;2331;48.806;9.140;2024-02-26T08:06:57;10.70;1.00
4637;DHT22;2331;48.806;9.140;2024-02-26T08:09:23;10.70;1.00
4637;DHT22;2331;48.806;9.140;2024-02-26T08:11:50;10.70;1.00
4637;DHT22;2331;48.806;9.140;2024-02-26T08:14:17;10.70;1.00
4637;DHT22;2331;48.806;9.140;2024-02-26T08:16:44;10.70;1.00
4637;DHT22;2331;48.806;9.140;2024-02-26T08:19:11;10.70;1.00
4637;DHT22;2331;48.806;9.140;2024-02-26T08:21:41;10.70;1.00
4637;DHT22;2331;48.806;9.140;2024-02-26T08:24:08;10.70;1.00
4637;DHT22;2331;48.806;9.140;2024-02-26T08:26:35;10.70;1.00
4637;DHT22;2331;48.806;9.140;2024-02-26T08:29:02;10.80;1.00
4637;DHT22;2331;48.806;9.140;2024-02-26T08:31:29;10.80;1.00
4637;DHT22;2331;48.806;9.140;2024-02-26T08:33:55;10.70;1.00
4637;DHT22;2331;48.806;9.140;2024-02-26T08:36:23;10.80;1.00
4637;DHT22;2331;48.806;9.140;2024-02-26T08:38:51;10.70;1.00
4637;DHT22;2331;48.806;9.140;2024-02-26T08:41:18;10.80;1.00
4637;DHT22;2331;48.806;9.140;2024-02-26T08:43:45;10.80;1.00
4637;DHT22;2331;48.806;9.140;2024-02-26T08:46:12;10.80;1.00
4637;DHT22;2331;48.806;9.140;2024-02-26T08:48:39;10.80;1.00
4637;DHT22;2331;48.806;9.140;2024-02-26T08:51:07;10.90;1.00
4637;DHT22;2331;48.806;9.140;2024-02-26T08:53:34;10.90;1.00
4637;DHT22;2331;48.806;9.140;2024-02-26T08:56:03;11.00;1.00
4637;DHT22;2331;48.806;9.140;2024-02-26T08:58:30;11.00;1.00
4637;DHT22;2331;48.806;9.140;2024-02-26T09:00:56;11.00;1.00
4637;DHT22;2331;48.806;9.140;2024-02-26T09:03:23;11.00;1.00
4637;DHT22;2331;48.806;9.140;2024-02-26T09:05:51;11.00;1.00
4637;DHT22;2331;48.806;9.140;2024-02-26T09:08:18;11.10;1.00
4637;DHT22;2331;48.806;9.140;2024-02-26T09:10:45;11.10;1.00
4637;DHT22;2331;48.806;9.140;2024-02-26T09:13:13;11.20;1.00
4637;DHT22;2331;48.806;9.140;2024-02-26T09:15:40;11.20;1.00
4637;DHT22;2331;48.806;9.140;2024-02-26T09:18:07;11.20;1.00
4637;DHT22;2331;48.806;9.140;2024-02-26T09:20:33;11.30;1.00
4637;DHT22;2331;48.806;9.140;2024-02-26T09:23:00;11.30;1.00
4637;DHT22;2331;48.806;9.140;2024-02-26T09:25:28;11.30;1.00
4637;DHT22;2331;48.806;9.140;2024-02-26T09:27:54;11.30;1.00
4637;DHT22;2331;48.806;9.140;2024-02-26T09:30:23;11.40;1.00
4637;DHT22;2331;48.806;9.140;2024-02-26T09:32:49;11.40;1.00
4637;DHT22;2331;48.806;9.140;2024-02-26T09:35:16;11.40;1.00
4637;DHT22;2331;48.806;9.140;2024-02-26T09:37:43;11.40;1.00
4637;DHT22;2331;48.806;9.140;2024-02-26T09:40:11;11.40;1.00
4637;DHT22;2331;48.806;9.140;2024-02-26T09:42:41;11.40;1.00
4637;DHT22;2331;48.806;9.140;2024-02-26T09:45:11;11.50;1.00
4637;DHT22;2331;48.806;9.140;2024-02-26T09:47:40;11.50;1.00
4637;DHT22;2331;48.806;9.140;2024-02-26T09:50:09;11.50;1.00
4637;DHT22;2331;48.806;9.140;2024-02-26T09:52:38;11.60;1.00
4637;DHT22;2331;48.806;9.140;2024-02-26T09:55:08;11.60;1.00
4637;DHT22;2331;48.806;9.140;2024-02-26T09:57:36;11.60;1.00
4637;DHT22;2331;48.806;9.140;2024-02-26T10:00:04;11.70;1.00
4637;DHT22;2331;48.806;9.140;2024-02-26T10:02:36;11.70;1.00
4637;DHT22;2331;48.806;9.140;2024-02-26T10:05:07;11.80;1.00
4637;DHT22;2331;48.806;9.140;2024-02-26T10:07:37;11.80;1.00
4637;DHT22;2331;48.806;9.140;2024-02-26T10:10:05;11.90;1.00
4637;DHT22;2331;48.806;9.140;2024-02-26T10:12:32;11.90;1.00
4637;DHT22;2331;48.806;9.140;2024-02-26T10:14:59;12.00;1.00
4637;DHT22;2331;48.806;9.140;2024-02-26T10:17:26;12.00;1.00
4637;DHT22;2331;48.806;9.140;2024-02-26T10:19:53;12.10;1.00
4637;DHT22;2331;48.806;9.140;2024-02-26T10:22:23;12.10;1.00
4637;DHT22;2331;48.806;9.140;2024-02-26T10:24:50;12.20;1.00
4637;DHT22;2331;48.806;9.140;2024-02-26T10:27:17;12.30;1.00
4637;DHT22;2331;48.806;9.140;2024-02-26T10:29:45;12.40;1.00
4637;DHT22;2331;48.806;9.140;2024-02-26T10:32:13;12.40;1.00
4637;DHT22;2331;48.806;9.140;2024-02-26T10:34:40;12.50;1.00
4637;DHT22;2331;48.806;9.140;2024-02-26T10:37:08;12.60;1.00
4637;DHT22;2331;48.806;9.140;2024-02-26T10:39:37;12.60;1.00
4637;DHT22;2331;48.806;9.140;2024-02-26T10:42:04;12.70;1.00
4637;DHT22;2331;48.806;9.140;2024-02-26T10:44:35;12.80;1.00
4637;DHT22;2331;48.806;9.140;2024-02-26T10:47:02;12.80;1.00
4637;DHT22;2331;48.806;9.140;2024-02-26T10:49:29;12.90;1.00
4637;DHT22;2331;48.806;9.140;2024-02-26T10:51:56;13.00;1.00
4637;DHT22;2331;48.806;9.140;2024-02-26T10:54:26;13.00;1.00
4637;DHT22;2331;48.806;9.140;2024-02-26T10:56:56;13.00;1.00
4637;DHT22;2331;48.806;9.140;2024-02-26T10:59:23;13.10;1.00
4637;DHT22;2331;48.806;9.140;2024-02-26T11:01:50;13.10;1.00
4637;DHT22;2331;48.806;9.140;2024-02-26T11:04:18;13.20;1.00
4637;DHT22;2331;48.806;9.140;2024-02-26T11:06:46;13.20;1.00
4637;DHT22;2331;48.806;9.140;2024-02-26T11:09:15;13.30;1.00
4637;DHT22;2331;48.806;9.140;2024-02-26T11:11:42;13.40;1.00
4637;DHT22;2331;48.806;9.140;2024-02-26T11:14:11;13.40;1.00
4637;DHT22;2331;48.806;9.140;2024-02-26T11:16:39;13.40;1.00
4637;DHT22;2331;48.806;9.140;2024-02-26T11:19:09;13.60;1.00
4637;DHT22;2331;48.806;9.140;2024-02-26T11:21:37;13.70;1.00
4637;DHT22;2331;48.806;9.140;2024-02-26T11:24:09;13.70;1.00
4637;DHT22;2331;48.806;9.140;2024-02-26T11:26:41;13.80;1.00
4637;DHT22;2331;48.806;9.140;2024-02-26T11:29:13;13.80;1.00
4637;DHT22;2331;48.806;9.140;2024-02-26T11:31:42;13.90;1.00
4637;DHT22;2331;48.806;9.140;2024-02-26T11:34:09;13.90;1.00
4637;DHT22;2331;48.806;9.140;2024-02-26T11:36:37;13.90;1.00
4637;DHT22;2331;48.806;9.140;2024-02-26T11:39:05;14.00;1.00
4637;DHT22;2331;48.806;9.140;2024-02-26T11:41:32;14.00;1.00
4637;DHT22;2331;48.806;9.140;2024-02-26T11:44:01;14.10;1.00
4637;DHT22;2331;48.806;9.140;2024-02-26T11:46:32;14.10;1.00
4637;DHT22;2331;48.806;9.140;2024-02-26T11:49:00;14.20;1.00
4637;DHT22;2331;48.806;9.140;2024-02-26T11:51:27;14.20;1.00
4637;DHT22;2331;48.806;9.140;2024-02-26T11:53:55;14.30;1.00
4637;DHT22;2331;48.806;9.140;2024-02-26T11:56:24;14.30;1.00
4637;DHT22;2331;48.806;9.140;2024-02-26T11:59:00;14.40;1.00
4637;DHT22;2331;48.806;9.140;2024-02-26T12:01:48;14.40;1.00
4637;DHT22;2331;48.806;9.140;2024-02-26T12:04:19;14.40;1.00
4637;DHT22;2331;48.806;9.140;2024-02-26T12:06:51;14.40;1.00
4637;DHT22;2331;48.806;9.140;2024-02-26T12:09:34;14.50;1.00
4637;DHT22;2331;48.806;9.140;2024-02-26T12:12:02;14.50;1.00
4637;DHT22;2331;48.806;9.140;2024-02-26T12:14:29;14.50;1.00
4637;DHT22;2331;48.806;9.140;2024-02-26T12:16:57;14.60;1.00
4637;DHT22;2331;48.806;9.140;2024-02-26T12:19:25;14.60;1.00
4637;DHT22;2331;48.806;9.140;2024-02-26T12:21:52;14.60;1.00
4637;DHT22;2331;48.806;9.140;2024-02-26T12:24:33;14.60;1.00
4637;DHT22;2331;48.806;9.140;2024-02-26T12:26:59;14.60;1.00
4637;DHT22;2331;48.806;9.140;2024-02-26T12:29:26;14.70;1.00
4637;DHT22;2331;48.806;9.140;2024-02-26T12:31:53;14.70;1.00
4637;DHT22;2331;48.806;9.140;2024-02-26T12:34:21;14.70;1.00
4637;DHT22;2331;48.806;9.140;2024-02-26T12:36:57;14.70;1.00
4637;DHT22;2331;48.806;9.140;2024-02-26T12:39:24;14.70;1.00
4637;DHT22;2331;48.806;9.140;2024-02-26T12:41:52;14.70;1.00
4637;DHT22;2331;48.806;9.140;2024-02-26T12:44:18;14.80;1.00
4637;DHT22;2331;48.806;9.140;2024-02-26T12:46:50;14.70;1.00
4637;DHT22;2331;48.806;9.140;2024-02-26T12:49:16;14.70;1.00
4637;DHT22;2331;48.806;9.140;2024-02-26T12:51:45;14.80;1.00
4637;DHT22;2331;48.806;9.140;2024-02-26T12:54:13;14.80;1.00
4637;DHT22;2331;48.806;9.140;2024-02-26T12:56:40;14.80;1.00
4637;DHT22;2331;48.806;9.140;2024-02-26T12:59:08;14.90;1.00
4637;DHT22;2331;48.806;9.140;2024-02-26T13:01:35;14.90;1.00
4637;DHT22;2331;48.806;9.140;2024-02-26T13:04:02;14.90;1.00
4637;DHT22;2331;48.806;9.140;2024-02-26T13:06:32;15.00;1.00
4637;DHT22;2331;48.806;9.140;2024-02-26T13:09:00;15.00;1.00
4637;DHT22;2331;48.806;9.140;2024-02-26T13:11:28;15.10;1.00
4637;DHT22;2331;48.806;9.140;2024-02-26T13:13:56;15.10;1.00
4637;DHT22;2331;48.806;9.140;2024-02-26T13:16:24;15.20;1.00
4637;DHT22;2331;48.806;9.140;2024-02-26T13:18:51;15.20;1.00
4637;DHT22;2331;48.806;9.140;2024-02-26T13:21:18;15.20;1.00
4637;DHT22;2331;48.806;9.140;2024-02-26T13:23:49;15.20;1.00
4637;DHT22;2331;48.806;9.140;2024-02-26T13:26:17;15.30;1.00
4637;DHT22;2331;48.806;9.140;2024-02-26T13:28:46;15.30;1.00
4637;DHT22;2331;48.806;9.140;2024-02-26T13:31:12;15.40;1.00
4637;DHT22;2331;48.806;9.140;2024-02-26T13:33:39;15.50;1.00
4637;DHT22;2331;48.806;9.140;2024-02-26T13:36:06;15.50;1.00
4637;DHT22;2331;48.806;9.140;2024-02-26T13:38:34;15.50;1.00
4637;DHT22;2331;48.806;9.140;2024-02-26T13:41:01;15.60;1.00
4637;DHT22;2331;48.806;9.140;2024-02-26T13:43:29;15.60;1.00
4637;DHT22;2331;48.806;9.140;2024-02-26T13:45:56;15.70;1.00
4637;DHT22;2331;48.806;9.140;2024-02-26T13:48:23;15.60;1.00
4637;DHT22;2331;48.806;9.140;2024-02-26T13:50:50;15.70;1.00
4637;DHT22;2331;48.806;9.140;2024-02-26T13:53:18;15.70;1.00
4637;DHT22;2331;48.806;9.140;2024-02-26T13:55:45;15.80;1.00
4637;DHT22;2331;48.806;9.140;2024-02-26T13:58:12;15.80;1.00
4637;DHT22;2331;48.806;9.140;2024-02-26T14:00:41;15.80;1.00
4637;DHT22;2331;48.806;9.140;2024-02-26T14:03:08;15.80;1.00
4637;DHT22;2331;48.806;9.140;2024-02-26T14:05:35;15.80;1.00
4637;DHT22;2331;48.806;9.140;2024-02-26T14:08:02;15.90;1.00
4637;DHT22;2331;48.806;9.140;2024-02-26T14:10:36;15.90;1.00
4637;DHT22;2331;48.806;9.140;2024-02-26T14:13:03;16.00;1.00
4637;DHT22;2331;48.806;9.140;2024-02-26T14:15:30;16.00;1.00
4637;DHT22;2331;48.806;9.140;2024-02-26T14:17:59;16.10;1.00
4637;DHT22;2331;48.806;9.140;2024-02-26T14:20:28;16.10;1.00
4637;DHT22;2331;48.806;9.140;2024-02-26T14:22:55;16.20;1.00
4637;DHT22;2331;48.806;9.140;2024-02-26T14:25:22;16.10;1.00
4637;DHT22;2331;48.806;9.140;2024-02-26T14:27:48;16.20;1.00
4637;DHT22;2331;48.806;9.140;2024-02-26T14:30:15;16.20;1.00
4637;DHT22;2331;48.806;9.140;2024-02-26T14:32:42;16.30;1.00
4637;DHT22;2331;48.806;9.140;2024-02-26T14:35:11;16.30;1.00
4637;DHT22;2331;48.806;9.140;2024-02-26T14:37:37;16.30;1.00
4637;DHT22;2331;48.806;9.140;2024-02-26T14:40:06;16.30;1.00
4637;DHT22;2331;48.806;9.140;2024-02-26T14:42:33;16.40;1.00
4637;DHT22;2331;48.806;9.140;2024-02-26T14:45:00;16.30;1.00
4637;DHT22;2331;48.806;9.140;2024-02-26T14:47:27;16.30;1.00
4637;DHT22;2331;48.806;9.140;2024-02-26T14:49:54;16.30;1.00
4637;DHT22;2331;48.806;9.140;2024-02-26T14:52:22;16.30;1.00
4637;DHT22;2331;48.806;9.140;2024-02-26T14:54:49;16.30;1.00
4637;DHT22;2331;48.806;9.140;2024-02-26T14:57:16;16.20;1.00
4637;DHT22;2331;48.806;9.140;2024-02-26T14:59:43;16.20;1.00
4637;DHT22;2331;48.806;9.140;2024-02-26T15:02:10;16.20;1.00
4637;DHT22;2331;48.806;9.140;2024-02-26T15:04:37;16.20;1.00
4637;DHT22;2331;48.806;9.140;2024-02-26T15:07:18;16.10;1.00
4637;DHT22;2331;48.806;9.140;2024-02-26T15:09:47;16.10;1.00
4637;DHT22;2331;48.806;9.140;2024-02-26T15:12:14;16.10;1.00
4637;DHT22;2331;48.806;9.140;2024-02-26T15:14:43;16.10;1.00
4637;DHT22;2331;48.806;9.140;2024-02-26T15:17:10;16.10;1.00
4637;DHT22;2331;48.806;9.140;2024-02-26T15:19:39;16.10;1.00
4637;DHT22;2331;48.806;9.140;2024-02-26T15:22:06;16.10;1.00
4637;DHT22;2331;48.806;9.140;2024-02-26T15:24:33;16.00;1.00
4637;DHT22;2331;48.806;9.140;2024-02-26T15:27:01;16.00;1.00
4637;DHT22;2331;48.806;9.140;2024-02-26T15:29:28;16.10;1.00
4637;DHT22;2331;48.806;9.140;2024-02-26T15:31:55;16.00;1.00
4637;DHT22;2331;48.806;9.140;2024-02-26T15:34:22;16.00;1.00
4637;DHT22;2331;48.806;9.140;2024-02-26T15:36:49;16.00;1.00
4637;DHT22;2331;48.806;9.140;2024-02-26T15:39:16;15.80;1.00
4637;DHT22;2331;48.806;9.140;2024-02-26T15:41:43;15.90;1.00
4637;DHT22;2331;48.806;9.140;2024-02-26T15:44:11;15.80;1.00
4637;DHT22;2331;48.806;9.140;2024-02-26T15:46:39;15.80;1.00
4637;DHT22;2331;48.806;9.140;2024-02-26T15:49:06;15.90;1.00
4637;DHT22;2331;48.806;9.140;2024-02-26T15:51:33;15.80;1.00
4637;DHT22;2331;48.806;9.140;2024-02-26T15:54:00;15.80;1.00
4637;DHT22;2331;48.806;9.140;2024-02-26T15:56:28;15.70;1.00
4637;DHT22;2331;48.806;9.140;2024-02-26T15:58:54;15.60;1.00
4637;DHT22;2331;48.806;9.140;2024-02-26T16:01:29;15.60;1.00
4637;DHT22;2331;48.806;9.140;2024-02-26T16:03:55;15.60;1.00
4637;DHT22;2331;48.806;9.140;2024-02-26T16:06:31;15.60;1.00
4637;DHT22;2331;48.806;9.140;2024-02-26T16:08:58;15.50;1.00
4637;DHT22;2331;48.806;9.140;2024-02-26T16:11:25;15.50;1.00
4637;DHT22;2331;48.806;9.140;2024-02-26T16:13:57;15.50;1.00
4637;DHT22;2331;48.806;9.140;2024-02-26T16:16:26;15.50;1.00
4637;DHT22;2331;48.806;9.140;2024-02-26T16:19:05;15.60;1.00
4637;DHT22;2331;48.806;9.140;2024-02-26T16:21:33;15.50;1.00